createdAt,value
2023-12-19T00:00:01.718Z,1.72
2023-12-19T00:02:29.410Z,1.77
2023-12-19T00:04:57.258Z,1.83
2023-12-19T00:07:24.712Z,1.90
2023-12-19T00:09:52.341Z,2.01
2023-12-19T00:12:20.483Z,2.10
2023-12-19T00:14:48.112Z,2.15
2023-12-19T00:17:15.763Z,2.20
2023-12-19T00:19:43.475Z,2.22
2023-12-19T00:22:11.189Z,2.22
2023-12-19T00:24:38.860Z,2.19
2023-12-19T00:27:06.520Z,2.21
2023-12-19T00:29:34.091Z,2.25
2023-12-19T00:32:02.052Z,2.28
2023-12-19T00:34:29.692Z,2.29
2023-12-19T00:36:57.508Z,2.35
2023-12-19T00:39:25.244Z,2.43
2023-12-19T00:41:52.782Z,2.50
2023-12-19T00:44:20.362Z,2.55
2023-12-19T00:46:47.915Z,2.62
2023-12-19T00:49:15.652Z,2.69
2023-12-19T00:51:43.869Z,2.75
2023-12-19T00:54:11.512Z,2.81
2023-12-19T00:56:39.163Z,2.86
2023-12-19T00:59:06.935Z,2.90
2023-12-19T01:01:34.505Z,2.89
2023-12-19T01:04:02.206Z,2.87
2023-12-19T01:06:30.078Z,2.87
2023-12-19T01:08:57.789Z,2.89
2023-12-19T01:11:25.239Z,2.93
2023-12-19T01:13:52.889Z,2.91
2023-12-19T01:16:20.761Z,2.88
2023-12-19T01:18:48.690Z,2.90
2023-12-19T01:21:16.493Z,2.94
2023-12-19T01:23:44.175Z,2.97
2023-12-19T01:26:16.431Z,2.96
2023-12-19T01:28:48.092Z,2.89
2023-12-19T01:31:15.864Z,2.84
2023-12-19T01:33:43.691Z,2.82
2023-12-19T01:36:11.505Z,2.81
2023-12-19T01:38:39.237Z,2.78
2023-12-19T01:41:06.797Z,2.75
2023-12-19T01:43:34.453Z,2.72
2023-12-19T01:46:02.081Z,2.68
2023-12-19T01:48:30.054Z,2.63
2023-12-19T01:50:57.853Z,2.57
2023-12-19T01:53:25.416Z,2.50
2023-12-19T01:55:52.964Z,2.43
2023-12-19T01:58:20.523Z,2.36
2023-12-19T02:00:48.557Z,2.31
2023-12-19T02:03:16.283Z,2.28
2023-12-19T02:05:44.030Z,2.28
2023-12-19T02:08:11.794Z,2.30
2023-12-19T02:10:39.442Z,2.30
2023-12-19T02:13:07.049Z,2.30
2023-12-19T02:15:34.777Z,2.26
2023-12-19T02:18:02.485Z,2.24
2023-12-19T02:20:30.293Z,2.25
2023-12-19T02:22:57.859Z,2.28
2023-12-19T02:25:25.529Z,2.31
2023-12-19T02:27:53.075Z,2.33
2023-12-19T02:30:20.690Z,2.33
2023-12-19T02:32:48.305Z,2.32
2023-12-19T02:35:15.961Z,2.32
2023-12-19T02:37:43.622Z,2.32
2023-12-19T02:40:11.616Z,2.33
2023-12-19T02:42:39.172Z,2.32
2023-12-19T02:45:06.811Z,2.31
2023-12-19T02:47:34.390Z,2.31
2023-12-19T02:50:02.128Z,2.31
2023-12-19T02:52:29.683Z,2.33
2023-12-19T02:54:57.385Z,2.35
2023-12-19T02:57:24.923Z,2.38
2023-12-19T02:59:52.665Z,2.39
2023-12-19T03:02:20.230Z,2.37
2023-12-19T03:04:47.906Z,2.34
2023-12-19T03:07:15.558Z,2.34
2023-12-19T03:09:43.254Z,2.35
2023-12-19T03:12:10.868Z,2.37
2023-12-19T03:14:38.445Z,2.42
2023-12-19T03:17:06.007Z,2.44
2023-12-19T03:19:34.067Z,2.47
2023-12-19T03:22:02.232Z,2.49
2023-12-19T03:24:30.049Z,2.52
2023-12-19T03:26:57.864Z,2.55
2023-12-19T03:29:25.434Z,2.55
2023-12-19T03:31:53.087Z,2.55
2023-12-19T03:34:20.773Z,2.53
2023-12-19T03:36:48.527Z,2.53
2023-12-19T03:39:16.202Z,2.55
2023-12-19T03:42:09.747Z,2.57
2023-12-19T03:44:31.360Z,2.57
2023-12-19T03:46:59.037Z,2.57
2023-12-19T03:49:26.763Z,2.55
2023-12-19T03:51:54.604Z,2.53
2023-12-19T03:54:22.246Z,2.54
2023-12-19T03:56:49.871Z,2.57
2023-12-19T03:59:17.429Z,2.61
2023-12-19T04:01:45.121Z,2.65
2023-12-19T04:06:40.328Z,2.70
2023-12-19T04:09:07.971Z,2.75
2023-12-19T04:11:35.526Z,2.81
2023-12-19T04:14:03.094Z,2.85
2023-12-19T04:16:30.746Z,2.92
2023-12-19T04:18:58.415Z,2.90
2023-12-19T04:21:25.988Z,2.86
2023-12-19T04:23:54.035Z,2.87
2023-12-19T04:26:21.703Z,2.88
2023-12-19T04:28:49.364Z,2.89
2023-12-19T04:31:17.080Z,2.84
2023-12-19T04:33:45.014Z,2.82
2023-12-19T04:36:12.772Z,2.80
2023-12-19T04:38:40.416Z,2.76
2023-12-19T04:41:07.977Z,2.70
2023-12-19T04:43:35.940Z,2.68
2023-12-19T04:46:03.590Z,2.68
2023-12-19T04:48:31.240Z,2.66
2023-12-19T04:50:59.035Z,2.65
2023-12-19T04:53:26.696Z,2.62
2023-12-19T04:55:54.353Z,2.59
2023-12-19T04:58:22.012Z,2.55
2023-12-19T05:00:49.810Z,2.50
2023-12-19T05:03:17.485Z,2.49
2023-12-19T05:05:45.449Z,2.47
2023-12-19T05:08:13.083Z,2.46
2023-12-19T05:10:40.627Z,2.40
2023-12-19T05:13:08.340Z,2.36
2023-12-19T05:15:36.076Z,2.36
2023-12-19T05:18:03.786Z,2.38
2023-12-19T05:20:31.642Z,2.41
2023-12-19T05:22:59.234Z,2.44
2023-12-19T05:25:26.903Z,2.47
2023-12-19T05:27:55.072Z,2.51
2023-12-19T05:30:22.951Z,2.55
2023-12-19T05:32:50.720Z,2.60
2023-12-19T05:35:18.368Z,2.64
2023-12-19T05:37:45.933Z,2.72
2023-12-19T05:40:13.479Z,2.80
2023-12-19T05:42:41.226Z,2.90
2023-12-19T05:45:09.214Z,2.97
2023-12-19T05:47:36.885Z,3.01
2023-12-19T05:50:04.550Z,3.08
2023-12-19T05:52:34.315Z,3.14
2023-12-19T05:55:02.468Z,3.20
2023-12-19T05:57:30.212Z,3.26
2023-12-19T05:59:57.949Z,3.28
2023-12-19T06:02:25.518Z,3.28
2023-12-19T06:04:53.168Z,3.30
2023-12-19T06:07:21.042Z,3.25
2023-12-19T06:09:48.640Z,3.21
2023-12-19T06:12:16.259Z,3.19
2023-12-19T06:14:43.914Z,3.13
2023-12-19T06:17:11.579Z,3.07
2023-12-19T06:19:39.327Z,3.03
2023-12-19T06:22:07.032Z,3.00
2023-12-19T06:24:34.771Z,2.97
2023-12-19T06:27:02.451Z,2.90
2023-12-19T06:29:29.987Z,2.87
2023-12-19T06:31:57.759Z,2.88
2023-12-19T06:34:25.725Z,2.90
2023-12-19T06:36:53.504Z,2.95
2023-12-19T06:39:21.158Z,3.00
2023-12-19T06:41:48.697Z,3.09
2023-12-19T06:44:16.248Z,3.15
2023-12-19T06:46:44.231Z,3.20
2023-12-19T06:49:12.022Z,3.27
2023-12-19T06:51:39.770Z,3.32
2023-12-19T06:54:07.306Z,3.38
2023-12-19T06:56:34.930Z,3.43
2023-12-19T06:59:02.534Z,3.50
2023-12-19T07:01:30.033Z,3.60
2023-12-19T07:03:57.850Z,3.87
2023-12-19T07:06:25.532Z,4.17
2023-12-19T07:08:53.633Z,4.27
2023-12-19T07:11:21.658Z,4.42
2023-12-19T07:13:49.325Z,5.04
2023-12-19T07:16:16.879Z,5.93
2023-12-19T07:18:44.554Z,6.42
2023-12-19T07:21:12.297Z,6.90
2023-12-19T07:23:39.794Z,7.51
2023-12-19T07:26:07.314Z,8.31
2023-12-19T07:28:34.869Z,8.75
2023-12-19T07:31:02.533Z,8.56
2023-12-19T07:33:30.429Z,8.70
2023-12-19T07:35:58.176Z,9.57
2023-12-19T07:38:25.835Z,10.44
2023-12-19T07:40:53.386Z,11.00
2023-12-19T07:43:20.949Z,11.75
2023-12-19T07:45:48.558Z,12.47
2023-12-19T07:48:16.343Z,12.98
2023-12-19T07:50:44.040Z,13.20
2023-12-19T07:53:11.697Z,13.45
2023-12-19T07:55:39.255Z,12.97
2023-12-19T07:58:07.031Z,12.20
2023-12-19T08:00:34.645Z,11.51
2023-12-19T08:03:02.472Z,10.94
2023-12-19T08:05:30.121Z,10.44
2023-12-19T08:07:57.665Z,10.05
2023-12-19T08:10:25.394Z,9.71
2023-12-19T08:12:53.425Z,9.41
2023-12-19T08:15:21.061Z,9.16
2023-12-19T08:17:48.682Z,8.97
2023-12-19T08:20:18.346Z,8.80
2023-12-19T08:22:46.296Z,8.61
2023-12-19T08:25:13.956Z,8.49
2023-12-19T08:27:41.666Z,8.42
2023-12-19T08:30:09.409Z,8.41
2023-12-19T08:32:37.569Z,8.38
2023-12-19T08:35:05.431Z,8.34
2023-12-19T08:37:33.285Z,8.34
2023-12-19T08:40:01.050Z,8.52
2023-12-19T08:42:28.826Z,8.97
2023-12-19T08:44:56.471Z,9.52
2023-12-19T08:47:24.046Z,10.38
2023-12-19T08:49:51.731Z,11.32
2023-12-19T08:52:19.450Z,12.00
2023-12-19T08:54:47.446Z,12.00
2023-12-19T08:57:14.985Z,11.69
2023-12-19T08:59:42.642Z,11.39
2023-12-19T09:02:10.621Z,11.10
2023-12-19T09:04:38.398Z,10.83
2023-12-19T09:07:06.153Z,10.50
2023-12-19T09:09:33.731Z,10.28
2023-12-19T09:12:01.371Z,10.30
2023-12-19T09:14:28.911Z,10.23
2023-12-19T09:16:56.820Z,10.01
2023-12-19T09:19:24.718Z,9.75
2023-12-19T09:21:52.559Z,9.55
2023-12-19T09:24:20.262Z,9.41
2023-12-19T09:26:48.044Z,9.31
2023-12-19T09:29:15.500Z,9.25
2023-12-19T09:31:43.223Z,9.17
2023-12-19T09:34:14.439Z,9.08
2023-12-19T09:36:50.880Z,8.99
2023-12-19T09:39:25.745Z,8.92
2023-12-19T09:41:53.464Z,8.98
2023-12-19T09:44:25.817Z,9.01
2023-12-19T09:46:54.425Z,9.00
2023-12-19T09:49:22.279Z,8.92
2023-12-19T09:51:50.074Z,8.79
2023-12-19T09:54:17.916Z,8.77
2023-12-19T09:56:46.795Z,8.81
2023-12-19T09:59:14.483Z,8.74
2023-12-19T10:01:42.246Z,8.59
2023-12-19T10:04:09.983Z,8.44
2023-12-19T10:06:46.855Z,8.33
2023-12-19T10:09:21.216Z,8.19
2023-12-19T10:11:48.956Z,8.09
2023-12-19T10:14:16.838Z,8.00
2023-12-19T10:16:44.472Z,7.93
2023-12-19T10:19:12.299Z,7.85
2023-12-19T10:21:40.019Z,7.77
2023-12-19T10:24:07.768Z,7.70
2023-12-19T10:26:35.326Z,7.63
2023-12-19T10:29:02.882Z,7.57
2023-12-19T10:31:30.316Z,7.50
2023-12-19T10:33:58.309Z,7.43
2023-12-19T10:36:26.200Z,7.37
2023-12-19T10:38:54.255Z,7.31
2023-12-19T10:41:21.805Z,7.26
2023-12-19T10:43:51.048Z,7.23
2023-12-19T10:46:18.963Z,7.31
2023-12-19T10:48:46.671Z,7.43
2023-12-19T10:51:14.340Z,7.53
2023-12-19T10:53:42.052Z,7.66
2023-12-19T10:56:09.720Z,7.84
2023-12-19T10:58:37.280Z,7.95
2023-12-19T11:01:05.238Z,7.99
2023-12-19T11:03:33.124Z,8.00
2023-12-19T11:06:00.796Z,7.99
2023-12-19T11:08:28.441Z,8.01
2023-12-19T11:10:56.099Z,8.08
2023-12-19T11:13:23.751Z,8.13
2023-12-19T11:15:51.329Z,8.17
2023-12-19T11:18:19.088Z,8.23
2023-12-19T11:20:46.825Z,8.28
2023-12-19T11:23:14.508Z,8.35
2023-12-19T11:25:42.215Z,8.41
2023-12-19T11:28:09.903Z,8.50
2023-12-19T11:30:38.106Z,8.59
2023-12-19T11:33:06.296Z,8.66
2023-12-19T11:35:34.365Z,8.74
2023-12-19T11:38:02.012Z,8.81
2023-12-19T11:40:29.975Z,8.86
2023-12-19T11:42:57.567Z,8.92
2023-12-19T11:45:25.206Z,8.96
2023-12-19T11:47:52.820Z,8.99
2023-12-19T11:50:20.652Z,9.01
2023-12-19T11:52:48.185Z,9.02
2023-12-19T11:55:15.808Z,9.02
2023-12-19T11:57:50.418Z,9.02
2023-12-19T12:00:25.186Z,9.01
2023-12-19T12:02:52.751Z,8.99
2023-12-19T12:05:20.452Z,8.97
2023-12-19T12:07:48.232Z,8.96
2023-12-19T12:10:15.892Z,8.96
2023-12-19T12:12:43.613Z,8.97
2023-12-19T12:15:11.157Z,8.96
2023-12-19T12:17:38.771Z,8.95
2023-12-19T12:20:06.501Z,8.94
2023-12-19T12:22:34.264Z,8.95
2023-12-19T12:25:01.849Z,8.93
2023-12-19T12:27:29.582Z,8.93
2023-12-19T12:29:57.126Z,8.93
2023-12-19T12:32:24.805Z,8.91
2023-12-19T12:34:52.373Z,8.88
2023-12-19T12:37:20.021Z,8.85
2023-12-19T12:39:47.576Z,8.80
2023-12-19T12:42:15.122Z,8.74
2023-12-19T12:44:42.688Z,8.68
2023-12-19T12:47:10.243Z,8.63
2023-12-19T12:49:37.883Z,8.57
2023-12-19T12:52:05.632Z,8.51
2023-12-19T12:54:33.333Z,8.46
2023-12-19T12:57:01.001Z,8.41
2023-12-19T12:59:28.690Z,8.37
2023-12-19T13:01:56.492Z,8.33
2023-12-19T13:04:24.282Z,8.30
2023-12-19T13:06:52.023Z,8.26
2023-12-19T13:09:19.707Z,8.23
2023-12-19T13:11:47.263Z,8.19
2023-12-19T13:14:14.814Z,8.14
2023-12-19T13:16:42.377Z,8.10
2023-12-19T13:19:10.303Z,8.06
2023-12-19T13:21:37.865Z,8.02
2023-12-19T13:24:05.980Z,7.99
2023-12-19T13:26:33.543Z,7.95
2023-12-19T13:29:01.095Z,7.92
2023-12-19T13:31:28.892Z,7.89
2023-12-19T13:33:56.836Z,7.87
2023-12-19T13:36:24.494Z,7.85
2023-12-19T13:38:52.155Z,7.81
2023-12-19T13:41:19.715Z,7.78
2023-12-19T13:43:47.390Z,7.75
2023-12-19T13:46:15.517Z,7.73
2023-12-19T13:48:44.811Z,7.70
2023-12-19T13:51:13.019Z,7.67
2023-12-19T13:53:40.575Z,7.64
2023-12-19T13:56:08.147Z,7.61
2023-12-19T13:58:35.703Z,7.59
2023-12-19T14:01:03.612Z,7.55
2023-12-19T14:03:31.328Z,7.50
2023-12-19T14:05:59.709Z,7.46
2023-12-19T14:08:27.780Z,7.42
2023-12-19T14:10:55.644Z,7.40
2023-12-19T14:13:23.233Z,7.40
2023-12-19T14:15:50.772Z,7.41
2023-12-19T14:18:18.538Z,7.43
2023-12-19T14:20:46.175Z,7.44
2023-12-19T14:23:13.744Z,7.45
2023-12-19T14:25:41.401Z,7.45
2023-12-19T14:28:08.987Z,7.43
2023-12-19T14:30:36.719Z,7.41
2023-12-19T14:33:04.417Z,7.40
2023-12-19T14:35:31.946Z,7.37
2023-12-19T14:37:59.620Z,7.35
2023-12-19T14:40:27.164Z,7.32
2023-12-19T14:42:54.885Z,7.28
2023-12-19T14:45:22.689Z,7.24
2023-12-19T14:47:51.792Z,7.21
2023-12-19T14:50:19.640Z,7.18
2023-12-19T14:52:47.419Z,7.15
2023-12-19T14:55:15.072Z,7.12
2023-12-19T14:57:43.240Z,7.10
2023-12-19T15:00:11.042Z,7.07
2023-12-19T15:02:38.670Z,7.05
2023-12-19T15:05:06.313Z,7.02
2023-12-19T15:07:34.038Z,7.00
2023-12-19T15:10:02.009Z,6.98
2023-12-19T15:12:29.873Z,6.95
2023-12-19T15:14:57.515Z,6.93
2023-12-19T15:17:25.175Z,6.89
2023-12-19T15:19:52.789Z,6.83
2023-12-19T15:22:20.624Z,6.78
2023-12-19T15:24:48.181Z,6.74
2023-12-19T15:27:15.909Z,6.72
2023-12-19T15:29:43.772Z,6.69
2023-12-19T15:32:11.437Z,6.66
2023-12-19T15:34:39.080Z,6.63
2023-12-19T15:37:07.030Z,6.59
2023-12-19T15:39:34.767Z,6.53
2023-12-19T15:42:02.382Z,6.48
2023-12-19T15:44:29.942Z,6.43
2023-12-19T15:46:57.502Z,6.39
2023-12-19T15:49:25.507Z,6.34
2023-12-19T15:51:53.299Z,6.29
2023-12-19T15:54:21.093Z,6.23
2023-12-19T15:56:48.648Z,6.15
2023-12-19T15:59:16.324Z,6.09
2023-12-19T16:01:44.045Z,6.04
2023-12-19T16:04:14.728Z,6.00
2023-12-19T16:06:42.440Z,5.95
2023-12-19T16:09:10.256Z,5.91
2023-12-19T16:11:37.596Z,5.90
2023-12-19T16:14:05.149Z,5.91
2023-12-19T16:16:32.818Z,5.94
2023-12-19T16:19:00.824Z,5.98
2023-12-19T16:21:28.654Z,6.03
2023-12-19T16:24:01.767Z,6.06
2023-12-19T16:26:32.749Z,6.07
2023-12-19T16:29:00.733Z,6.07
2023-12-19T16:31:29.023Z,6.07
2023-12-19T16:33:57.035Z,6.07
2023-12-19T16:36:25.176Z,6.06
2023-12-19T16:38:53.327Z,6.06
2023-12-19T16:41:21.101Z,6.05
2023-12-19T16:43:48.965Z,6.05
2023-12-19T16:46:16.585Z,6.05
2023-12-19T16:48:44.723Z,6.05
2023-12-19T16:51:12.842Z,6.06
2023-12-19T16:53:40.639Z,6.07
2023-12-19T16:56:08.194Z,6.08
2023-12-19T16:58:42.594Z,6.10
2023-12-19T17:01:11.900Z,6.13
2023-12-19T17:03:39.590Z,6.17
2023-12-19T17:06:07.360Z,6.19
2023-12-19T17:08:35.002Z,6.22
2023-12-19T17:11:02.669Z,6.25
2023-12-19T17:13:30.227Z,6.27
2023-12-19T17:15:57.916Z,6.28
2023-12-19T17:18:25.574Z,6.28
2023-12-19T17:20:53.638Z,6.28
2023-12-19T17:23:22.847Z,6.28
2023-12-19T17:25:51.596Z,6.29
2023-12-19T17:28:19.189Z,6.29
2023-12-19T17:30:46.982Z,6.29
2023-12-19T17:33:14.727Z,6.28
2023-12-19T17:35:42.235Z,6.27
2023-12-19T17:38:09.802Z,6.28
2023-12-19T17:40:37.352Z,6.30
2023-12-19T17:43:04.964Z,6.35
2023-12-19T17:45:32.640Z,6.40
2023-12-19T17:48:00.392Z,6.43
2023-12-19T17:50:28.153Z,6.46
2023-12-19T17:52:55.868Z,6.47
2023-12-19T17:55:23.564Z,6.49
2023-12-19T17:57:51.245Z,6.49
2023-12-19T18:00:19.262Z,6.50
2023-12-19T18:02:47.159Z,6.49
2023-12-19T18:05:15.163Z,6.49
2023-12-19T18:07:42.862Z,6.48
2023-12-19T18:10:10.458Z,6.46
2023-12-19T18:12:38.335Z,6.45
2023-12-19T18:15:06.058Z,6.43
2023-12-19T18:17:33.792Z,6.42
2023-12-19T18:20:01.639Z,6.41
2023-12-19T18:22:29.518Z,6.40
2023-12-19T18:24:57.345Z,6.39
2023-12-19T18:27:24.968Z,6.39
2023-12-19T18:29:52.423Z,6.40
2023-12-19T18:32:19.985Z,6.40
2023-12-19T18:34:47.619Z,6.40
2023-12-19T18:37:15.395Z,6.40
2023-12-19T18:39:43.205Z,6.41
2023-12-19T18:42:10.847Z,6.41
2023-12-19T18:44:38.500Z,6.43
2023-12-19T18:47:06.239Z,6.44
2023-12-19T18:49:34.004Z,6.46
2023-12-19T18:52:01.772Z,6.46
2023-12-19T18:54:29.562Z,6.48
2023-12-19T18:56:57.107Z,6.49
2023-12-19T18:59:24.777Z,6.50
2023-12-19T19:01:52.468Z,6.51
2023-12-19T19:04:20.428Z,6.52
2023-12-19T19:06:48.257Z,6.53
2023-12-19T19:09:15.930Z,6.55
2023-12-19T19:11:43.387Z,6.59
2023-12-19T19:14:10.983Z,6.62
2023-12-19T19:16:38.617Z,6.65
2023-12-19T19:19:06.389Z,6.67
2023-12-19T19:21:34.008Z,6.67
2023-12-19T19:24:01.812Z,6.68
2023-12-19T19:26:29.872Z,6.69
2023-12-19T19:28:57.577Z,6.68
2023-12-19T19:31:25.430Z,6.68
2023-12-19T19:33:53.448Z,6.68
2023-12-19T19:36:21.343Z,6.66
2023-12-19T19:38:48.998Z,6.65
2023-12-19T19:41:16.648Z,6.64
2023-12-19T19:43:44.209Z,6.62
2023-12-19T19:46:12.216Z,6.62
2023-12-19T19:48:39.984Z,6.61
2023-12-19T19:51:07.702Z,6.61
2023-12-19T19:53:35.263Z,6.60
2023-12-19T19:56:02.926Z,6.58
2023-12-19T19:58:30.480Z,6.58
2023-12-19T20:00:58.121Z,6.60
2023-12-19T20:03:25.911Z,6.62
2023-12-19T20:05:53.515Z,6.64
2023-12-19T20:08:21.644Z,6.66
2023-12-19T20:10:49.201Z,6.68
2023-12-19T20:13:16.813Z,6.68
2023-12-19T20:15:44.451Z,6.69
2023-12-19T20:18:12.371Z,6.69
2023-12-19T20:20:40.146Z,6.68
2023-12-19T20:23:07.726Z,6.68
2023-12-19T20:25:35.268Z,6.67
2023-12-19T20:28:02.971Z,6.65
2023-12-19T20:30:30.618Z,6.63
2023-12-19T20:32:58.485Z,6.61
2023-12-19T20:35:26.251Z,6.58
2023-12-19T20:37:54.087Z,6.56
2023-12-19T20:40:21.692Z,6.52
2023-12-19T20:42:49.841Z,6.49
2023-12-19T20:45:17.582Z,6.46
2023-12-19T20:47:45.613Z,6.45
2023-12-19T20:50:13.508Z,6.45
2023-12-19T20:52:50.376Z,6.44
2023-12-19T20:55:25.324Z,6.43
2023-12-19T20:57:53.421Z,6.43
2023-12-19T21:00:23.531Z,6.42
2023-12-19T21:02:52.616Z,6.42
2023-12-19T21:05:20.247Z,6.40
2023-12-19T21:07:48.240Z,6.39
2023-12-19T21:10:15.983Z,6.38
2023-12-19T21:12:44.040Z,6.37
2023-12-19T21:15:11.839Z,6.37
2023-12-19T21:17:39.426Z,6.36
2023-12-19T21:20:07.289Z,6.36
2023-12-19T21:22:35.148Z,6.38
2023-12-19T21:25:02.776Z,6.40
2023-12-19T21:27:30.555Z,6.41
2023-12-19T21:29:58.230Z,6.42
2023-12-19T21:32:25.832Z,6.41
2023-12-19T21:34:53.609Z,6.39
2023-12-19T21:37:21.392Z,6.37
2023-12-19T21:39:49.212Z,6.36
2023-12-19T21:42:16.829Z,6.35
2023-12-19T21:44:44.805Z,6.34
2023-12-19T21:47:12.478Z,6.32
2023-12-19T21:49:40.128Z,6.32
2023-12-19T21:52:07.833Z,6.32
2023-12-19T21:54:35.652Z,6.33
2023-12-19T21:57:03.328Z,6.31
2023-12-19T21:59:30.976Z,6.29
2023-12-19T22:01:58.845Z,6.28
2023-12-19T22:04:27.011Z,6.26
2023-12-19T22:06:55.161Z,6.24
2023-12-19T22:09:22.948Z,6.22
2023-12-19T22:11:50.631Z,6.19
2023-12-19T22:14:18.276Z,6.17
2023-12-19T22:16:45.928Z,6.16
2023-12-19T22:19:13.550Z,6.16
2023-12-19T22:21:41.032Z,6.16
2023-12-19T22:24:08.812Z,6.14
2023-12-19T22:26:36.494Z,6.12
2023-12-19T22:29:04.137Z,6.10
2023-12-19T22:31:32.089Z,6.07
2023-12-19T22:33:59.800Z,6.04
2023-12-19T22:36:27.525Z,6.01
2023-12-19T22:38:55.093Z,5.98
2023-12-19T22:41:22.745Z,5.98
2023-12-19T22:43:50.308Z,5.98
2023-12-19T22:46:17.890Z,5.99
2023-12-19T22:48:45.753Z,6.00
2023-12-19T22:51:13.612Z,6.00
2023-12-19T22:53:41.177Z,6.00
2023-12-19T22:56:08.812Z,5.98
2023-12-19T22:58:36.520Z,5.95
2023-12-19T23:01:04.434Z,5.93
2023-12-19T23:03:32.108Z,5.91
2023-12-19T23:05:59.788Z,5.90
2023-12-19T23:08:27.533Z,5.91
2023-12-19T23:10:55.090Z,5.92
2023-12-19T23:13:23.118Z,5.93
2023-12-19T23:15:51.076Z,5.92
2023-12-19T23:18:19.046Z,5.92
2023-12-19T23:20:46.881Z,5.90
2023-12-19T23:23:14.643Z,5.86
2023-12-19T23:25:42.185Z,5.81
2023-12-19T23:28:09.871Z,5.75
2023-12-19T23:30:37.476Z,5.72
2023-12-19T23:33:05.594Z,5.71
2023-12-19T23:35:33.139Z,5.70
2023-12-19T23:38:00.799Z,5.71
2023-12-19T23:40:28.361Z,5.72
2023-12-19T23:42:56.042Z,5.71
2023-12-19T23:45:23.684Z,5.69
2023-12-19T23:47:51.278Z,5.69
2023-12-19T23:50:19.018Z,5.69
2023-12-19T23:52:46.966Z,5.70
2023-12-19T23:55:14.763Z,5.71
2023-12-19T23:57:42.904Z,5.71
